sensor_id;sensor_type;location;lat;lon;timestamp;P1;durP1;ratioP1;P2;durP2;ratioP2
81685;SDS011;71102;50.960;6.888;2023-07-20T00:01:27;9.18;;;2.70;;
81685;SDS011;71102;50.960;6.888;2023-07-20T00:03:52;6.97;;;2.13;;
81685;SDS011;71102;50.960;6.888;2023-07-20T00:06:18;6.53;;;2.00;;
81685;SDS011;71102;50.960;6.888;2023-07-20T00:08:43;6.53;;;2.20;;
81685;SDS011;71102;50.960;6.888;2023-07-20T00:11:08;6.87;;;1.97;;
81685;SDS011;71102;50.960;6.888;2023-07-20T00:13:33;7.73;;;2.07;;
81685;SDS011;71102;50.960;6.888;2023-07-20T00:15:59;7.32;;;2.22;;
81685;SDS011;71102;50.960;6.888;2023-07-20T00:18:24;5.85;;;2.00;;
81685;SDS011;71102;50.960;6.888;2023-07-20T00:20:49;7.97;;;2.03;;
81685;SDS011;71102;50.960;6.888;2023-07-20T00:23:15;6.97;;;2.28;;
81685;SDS011;71102;50.960;6.888;2023-07-20T00:25:40;7.32;;;1.88;;
81685;SDS011;71102;50.960;6.888;2023-07-20T00:28:05;6.20;;;1.95;;
81685;SDS011;71102;50.960;6.888;2023-07-20T00:30:31;7.50;;;1.90;;
81685;SDS011;71102;50.960;6.888;2023-07-20T00:32:56;5.50;;;1.73;;
81685;SDS011;71102;50.960;6.888;2023-07-20T00:35:22;8.75;;;3.63;;
81685;SDS011;71102;50.960;6.888;2023-07-20T00:37:47;10.20;;;2.10;;
81685;SDS011;71102;50.960;6.888;2023-07-20T00:40:12;9.93;;;2.22;;
81685;SDS011;71102;50.960;6.888;2023-07-20T00:42:38;5.38;;;1.70;;
81685;SDS011;71102;50.960;6.888;2023-07-20T00:45:03;9.75;;;2.20;;
81685;SDS011;71102;50.960;6.888;2023-07-20T00:47:29;8.73;;;2.05;;
81685;SDS011;71102;50.960;6.888;2023-07-20T00:49:55;6.60;;;1.80;;
81685;SDS011;71102;50.960;6.888;2023-07-20T00:52:21;8.25;;;2.10;;
81685;SDS011;71102;50.960;6.888;2023-07-20T00:54:50;6.70;;;1.95;;
81685;SDS011;71102;50.960;6.888;2023-07-20T00:57:16;8.52;;;2.10;;
81685;SDS011;71102;50.960;6.888;2023-07-20T00:59:44;8.05;;;2.05;;
81685;SDS011;71102;50.960;6.888;2023-07-20T01:02:10;6.30;;;2.10;;
81685;SDS011;71102;50.960;6.888;2023-07-20T01:04:35;7.05;;;2.40;;
81685;SDS011;71102;50.960;6.888;2023-07-20T01:12:27;7.07;;;2.20;;
81685;SDS011;71102;50.960;6.888;2023-07-20T01:15:15;8.20;;;2.10;;
81685;SDS011;71102;50.960;6.888;2023-07-20T01:17:41;7.88;;;1.95;;
81685;SDS011;71102;50.960;6.888;2023-07-20T01:20:06;7.22;;;2.30;;
81685;SDS011;71102;50.960;6.888;2023-07-20T01:22:57;8.82;;;2.15;;
81685;SDS011;71102;50.960;6.888;2023-07-20T01:31:33;8.85;;;2.40;;
81685;SDS011;71102;50.960;6.888;2023-07-20T01:34:01;7.50;;;2.17;;
81685;SDS011;71102;50.960;6.888;2023-07-20T01:36:29;8.23;;;2.20;;
81685;SDS011;71102;50.960;6.888;2023-07-20T01:38:58;7.13;;;2.25;;
81685;SDS011;71102;50.960;6.888;2023-07-20T01:41:24;6.03;;;2.05;;
81685;SDS011;71102;50.960;6.888;2023-07-20T01:43:50;6.15;;;2.05;;
81685;SDS011;71102;50.960;6.888;2023-07-20T01:46:15;5.63;;;1.85;;
81685;SDS011;71102;50.960;6.888;2023-07-20T01:48:40;5.60;;;1.90;;
81685;SDS011;71102;50.960;6.888;2023-07-20T01:51:07;11.48;;;3.22;;
81685;SDS011;71102;50.960;6.888;2023-07-20T01:53:32;7.90;;;1.90;;
81685;SDS011;71102;50.960;6.888;2023-07-20T01:55:58;6.30;;;2.05;;
81685;SDS011;71102;50.960;6.888;2023-07-20T01:58:23;9.48;;;2.25;;
81685;SDS011;71102;50.960;6.888;2023-07-20T02:00:48;7.68;;;3.35;;
81685;SDS011;71102;50.960;6.888;2023-07-20T02:03:14;7.95;;;2.20;;
81685;SDS011;71102;50.960;6.888;2023-07-20T02:05:39;5.57;;;2.00;;
81685;SDS011;71102;50.960;6.888;2023-07-20T02:08:08;6.45;;;1.95;;
81685;SDS011;71102;50.960;6.888;2023-07-20T02:10:34;6.20;;;2.00;;
81685;SDS011;71102;50.960;6.888;2023-07-20T02:12:59;6.03;;;2.28;;
81685;SDS011;71102;50.960;6.888;2023-07-20T02:15:24;5.95;;;1.95;;
81685;SDS011;71102;50.960;6.888;2023-07-20T02:17:50;6.38;;;2.10;;
81685;SDS011;71102;50.960;6.888;2023-07-20T02:20:16;5.97;;;1.88;;
81685;SDS011;71102;50.960;6.888;2023-07-20T02:22:41;6.20;;;3.53;;
81685;SDS011;71102;50.960;6.888;2023-07-20T02:25:07;6.88;;;2.72;;
81685;SDS011;71102;50.960;6.888;2023-07-20T02:27:33;7.43;;;3.33;;
81685;SDS011;71102;50.960;6.888;2023-07-20T02:29:59;5.72;;;1.98;;
81685;SDS011;71102;50.960;6.888;2023-07-20T02:32:25;6.03;;;2.15;;
81685;SDS011;71102;50.960;6.888;2023-07-20T02:34:50;7.88;;;2.13;;
81685;SDS011;71102;50.960;6.888;2023-07-20T02:37:16;6.63;;;2.92;;
81685;SDS011;71102;50.960;6.888;2023-07-20T02:39:42;7.18;;;2.28;;
81685;SDS011;71102;50.960;6.888;2023-07-20T02:42:07;8.65;;;2.67;;
81685;SDS011;71102;50.960;6.888;2023-07-20T02:44:33;6.68;;;2.25;;
81685;SDS011;71102;50.960;6.888;2023-07-20T02:46:59;10.82;;;2.55;;
81685;SDS011;71102;50.960;6.888;2023-07-20T02:49:24;9.07;;;2.33;;
81685;SDS011;71102;50.960;6.888;2023-07-20T02:51:50;6.68;;;2.40;;
81685;SDS011;71102;50.960;6.888;2023-07-20T02:54:15;6.00;;;2.67;;
81685;SDS011;71102;50.960;6.888;2023-07-20T02:56:41;6.78;;;2.58;;
81685;SDS011;71102;50.960;6.888;2023-07-20T02:59:06;7.35;;;4.38;;
81685;SDS011;71102;50.960;6.888;2023-07-20T03:01:31;6.40;;;2.40;;
81685;SDS011;71102;50.960;6.888;2023-07-20T03:03:57;9.25;;;2.50;;
81685;SDS011;71102;50.960;6.888;2023-07-20T03:06:22;9.35;;;4.88;;
81685;SDS011;71102;50.960;6.888;2023-07-20T03:08:47;7.53;;;2.63;;
81685;SDS011;71102;50.960;6.888;2023-07-20T03:11:16;6.65;;;2.42;;
81685;SDS011;71102;50.960;6.888;2023-07-20T03:13:42;6.93;;;2.60;;
81685;SDS011;71102;50.960;6.888;2023-07-20T03:16:08;6.85;;;2.38;;
81685;SDS011;71102;50.960;6.888;2023-07-20T03:18:33;8.27;;;2.85;;
81685;SDS011;71102;50.960;6.888;2023-07-20T03:20:59;6.22;;;2.40;;
81685;SDS011;71102;50.960;6.888;2023-07-20T03:23:24;7.82;;;2.72;;
81685;SDS011;71102;50.960;6.888;2023-07-20T03:25:49;9.45;;;2.53;;
81685;SDS011;71102;50.960;6.888;2023-07-20T03:28:15;7.22;;;2.63;;
81685;SDS011;71102;50.960;6.888;2023-07-20T03:30:40;10.90;;;2.83;;
81685;SDS011;71102;50.960;6.888;2023-07-20T03:33:06;7.20;;;2.08;;
81685;SDS011;71102;50.960;6.888;2023-07-20T03:35:31;6.65;;;2.40;;
81685;SDS011;71102;50.960;6.888;2023-07-20T03:37:57;8.95;;;2.33;;
81685;SDS011;71102;50.960;6.888;2023-07-20T03:40:22;9.55;;;2.70;;
81685;SDS011;71102;50.960;6.888;2023-07-20T03:42:47;10.50;;;2.50;;
81685;SDS011;71102;50.960;6.888;2023-07-20T03:45:13;8.07;;;2.30;;
81685;SDS011;71102;50.960;6.888;2023-07-20T03:47:38;6.93;;;2.35;;
81685;SDS011;71102;50.960;6.888;2023-07-20T03:50:04;6.40;;;1.77;;
81685;SDS011;71102;50.960;6.888;2023-07-20T03:52:29;10.38;;;2.85;;
81685;SDS011;71102;50.960;6.888;2023-07-20T03:54:55;9.15;;;3.88;;
81685;SDS011;71102;50.960;6.888;2023-07-20T03:57:20;7.00;;;2.53;;
81685;SDS011;71102;50.960;6.888;2023-07-20T03:59:45;7.57;;;2.47;;
81685;SDS011;71102;50.960;6.888;2023-07-20T04:02:11;7.32;;;2.30;;
81685;SDS011;71102;50.960;6.888;2023-07-20T04:04:36;5.47;;;1.90;;
81685;SDS011;71102;50.960;6.888;2023-07-20T04:07:02;8.98;;;4.03;;
81685;SDS011;71102;50.960;6.888;2023-07-20T04:09:27;8.05;;;3.47;;
81685;SDS011;71102;50.960;6.888;2023-07-20T04:11:53;6.88;;;2.38;;
81685;SDS011;71102;50.960;6.888;2023-07-20T04:14:18;7.35;;;2.25;;
81685;SDS011;71102;50.960;6.888;2023-07-20T04:16:45;8.75;;;2.33;;
81685;SDS011;71102;50.960;6.888;2023-07-20T04:19:11;6.95;;;2.30;;
81685;SDS011;71102;50.960;6.888;2023-07-20T04:21:39;7.57;;;2.30;;
81685;SDS011;71102;50.960;6.888;2023-07-20T04:24:05;6.00;;;1.80;;
81685;SDS011;71102;50.960;6.888;2023-07-20T04:26:31;10.13;;;2.38;;
81685;SDS011;71102;50.960;6.888;2023-07-20T04:28:57;10.45;;;2.72;;
81685;SDS011;71102;50.960;6.888;2023-07-20T04:34:03;7.23;;;3.20;;
81685;SDS011;71102;50.960;6.888;2023-07-20T04:36:28;6.22;;;1.88;;
81685;SDS011;71102;50.960;6.888;2023-07-20T04:38:54;5.80;;;2.00;;
81685;SDS011;71102;50.960;6.888;2023-07-20T04:41:21;10.85;;;2.20;;
81685;SDS011;71102;50.960;6.888;2023-07-20T04:43:48;8.23;;;2.20;;
81685;SDS011;71102;50.960;6.888;2023-07-20T04:46:18;11.45;;;2.50;;
81685;SDS011;71102;50.960;6.888;2023-07-20T04:48:43;8.48;;;2.60;;
81685;SDS011;71102;50.960;6.888;2023-07-20T04:51:09;9.18;;;2.60;;
81685;SDS011;71102;50.960;6.888;2023-07-20T04:53:34;9.85;;;2.28;;
81685;SDS011;71102;50.960;6.888;2023-07-20T04:56:00;11.05;;;2.70;;
81685;SDS011;71102;50.960;6.888;2023-07-20T04:58:25;9.05;;;2.58;;
81685;SDS011;71102;50.960;6.888;2023-07-20T05:00:52;8.48;;;2.65;;
81685;SDS011;71102;50.960;6.888;2023-07-20T05:03:19;7.75;;;2.50;;
81685;SDS011;71102;50.960;6.888;2023-07-20T05:05:46;9.30;;;3.97;;
81685;SDS011;71102;50.960;6.888;2023-07-20T05:08:12;9.05;;;2.75;;
81685;SDS011;71102;50.960;6.888;2023-07-20T05:10:37;7.43;;;2.67;;
81685;SDS011;71102;50.960;6.888;2023-07-20T05:13:03;11.93;;;3.63;;
81685;SDS011;71102;50.960;6.888;2023-07-20T05:15:28;9.82;;;3.03;;
81685;SDS011;71102;50.960;6.888;2023-07-20T05:17:55;10.00;;;3.78;;
81685;SDS011;71102;50.960;6.888;2023-07-20T05:20:21;8.07;;;2.97;;
81685;SDS011;71102;50.960;6.888;2023-07-20T05:22:46;9.52;;;3.50;;
81685;SDS011;71102;50.960;6.888;2023-07-20T05:25:12;9.93;;;3.35;;
81685;SDS011;71102;50.960;6.888;2023-07-20T05:27:37;12.75;;;4.53;;
81685;SDS011;71102;50.960;6.888;2023-07-20T05:30:04;8.30;;;3.45;;
81685;SDS011;71102;50.960;6.888;2023-07-20T05:32:30;10.32;;;3.78;;
81685;SDS011;71102;50.960;6.888;2023-07-20T05:34:55;10.32;;;5.05;;
81685;SDS011;71102;50.960;6.888;2023-07-20T05:37:21;10.57;;;3.35;;
81685;SDS011;71102;50.960;6.888;2023-07-20T05:39:46;9.45;;;3.60;;
81685;SDS011;71102;50.960;6.888;2023-07-20T05:42:12;9.55;;;3.83;;
81685;SDS011;71102;50.960;6.888;2023-07-20T05:44:37;9.27;;;3.42;;
81685;SDS011;71102;50.960;6.888;2023-07-20T05:47:02;10.88;;;3.85;;
81685;SDS011;71102;50.960;6.888;2023-07-20T05:49:28;10.85;;;4.82;;
81685;SDS011;71102;50.960;6.888;2023-07-20T05:51:54;9.90;;;5.45;;
81685;SDS011;71102;50.960;6.888;2023-07-20T05:54:21;9.40;;;3.55;;
81685;SDS011;71102;50.960;6.888;2023-07-20T05:56:46;10.35;;;4.05;;
81685;SDS011;71102;50.960;6.888;2023-07-20T05:59:12;10.48;;;4.30;;
81685;SDS011;71102;50.960;6.888;2023-07-20T06:01:38;13.23;;;5.22;;
81685;SDS011;71102;50.960;6.888;2023-07-20T06:04:03;12.05;;;6.18;;
81685;SDS011;71102;50.960;6.888;2023-07-20T06:06:28;14.13;;;5.82;;
81685;SDS011;71102;50.960;6.888;2023-07-20T06:08:54;13.40;;;5.70;;
81685;SDS011;71102;50.960;6.888;2023-07-20T06:11:19;12.45;;;5.05;;
81685;SDS011;71102;50.960;6.888;2023-07-20T06:13:45;11.40;;;5.28;;
81685;SDS011;71102;50.960;6.888;2023-07-20T06:16:10;10.65;;;5.20;;
81685;SDS011;71102;50.960;6.888;2023-07-20T06:18:36;11.90;;;5.30;;
81685;SDS011;71102;50.960;6.888;2023-07-20T06:21:01;11.35;;;6.05;;
81685;SDS011;71102;50.960;6.888;2023-07-20T06:23:27;15.10;;;7.03;;
81685;SDS011;71102;50.960;6.888;2023-07-20T06:25:52;14.48;;;6.93;;
81685;SDS011;71102;50.960;6.888;2023-07-20T06:28:18;12.90;;;6.28;;
81685;SDS011;71102;50.960;6.888;2023-07-20T06:30:43;11.73;;;6.33;;
81685;SDS011;71102;50.960;6.888;2023-07-20T06:33:08;12.13;;;6.93;;
81685;SDS011;71102;50.960;6.888;2023-07-20T06:35:34;15.47;;;6.10;;
81685;SDS011;71102;50.960;6.888;2023-07-20T06:37:59;15.35;;;6.18;;
81685;SDS011;71102;50.960;6.888;2023-07-20T06:40:25;12.68;;;6.20;;
81685;SDS011;71102;50.960;6.888;2023-07-20T06:42:50;14.23;;;5.72;;
81685;SDS011;71102;50.960;6.888;2023-07-20T06:45:15;11.37;;;5.73;;
81685;SDS011;71102;50.960;6.888;2023-07-20T06:47:41;15.60;;;5.60;;
81685;SDS011;71102;50.960;6.888;2023-07-20T06:50:06;12.00;;;5.90;;
81685;SDS011;71102;50.960;6.888;2023-07-20T06:52:32;11.68;;;5.65;;
81685;SDS011;71102;50.960;6.888;2023-07-20T06:54:58;10.07;;;5.57;;
81685;SDS011;71102;50.960;6.888;2023-07-20T06:57:23;10.88;;;7.50;;
81685;SDS011;71102;50.960;6.888;2023-07-20T06:59:48;9.90;;;5.38;;
81685;SDS011;71102;50.960;6.888;2023-07-20T07:02:14;11.05;;;4.78;;
81685;SDS011;71102;50.960;6.888;2023-07-20T07:04:39;9.60;;;5.18;;
81685;SDS011;71102;50.960;6.888;2023-07-20T07:07:05;12.10;;;5.03;;
81685;SDS011;71102;50.960;6.888;2023-07-20T07:09:30;12.88;;;5.32;;
81685;SDS011;71102;50.960;6.888;2023-07-20T07:11:55;13.77;;;5.63;;
81685;SDS011;71102;50.960;6.888;2023-07-20T07:14:21;12.03;;;5.53;;
81685;SDS011;71102;50.960;6.888;2023-07-20T07:16:46;10.07;;;5.43;;
81685;SDS011;71102;50.960;6.888;2023-07-20T07:19:12;11.82;;;5.63;;
81685;SDS011;71102;50.960;6.888;2023-07-20T07:21:37;12.05;;;5.40;;
81685;SDS011;71102;50.960;6.888;2023-07-20T07:24:03;11.93;;;5.15;;
81685;SDS011;71102;50.960;6.888;2023-07-20T07:26:28;12.02;;;4.90;;
81685;SDS011;71102;50.960;6.888;2023-07-20T07:28:53;10.52;;;5.57;;
81685;SDS011;71102;50.960;6.888;2023-07-20T07:31:19;9.65;;;4.95;;
81685;SDS011;71102;50.960;6.888;2023-07-20T07:33:44;9.75;;;5.03;;
81685;SDS011;71102;50.960;6.888;2023-07-20T07:36:09;9.70;;;5.10;;
81685;SDS011;71102;50.960;6.888;2023-07-20T07:38:35;9.80;;;6.97;;
81685;SDS011;71102;50.960;6.888;2023-07-20T07:41:00;10.83;;;4.17;;
81685;SDS011;71102;50.960;6.888;2023-07-20T07:43:25;8.02;;;4.57;;
81685;SDS011;71102;50.960;6.888;2023-07-20T07:45:53;9.65;;;4.75;;
81685;SDS011;71102;50.960;6.888;2023-07-20T07:48:19;8.88;;;4.40;;
81685;SDS011;71102;50.960;6.888;2023-07-20T07:50:44;8.55;;;4.15;;
81685;SDS011;71102;50.960;6.888;2023-07-20T07:53:10;9.10;;;5.25;;
81685;SDS011;71102;50.960;6.888;2023-07-20T07:55:35;9.30;;;4.45;;
81685;SDS011;71102;50.960;6.888;2023-07-20T07:58:00;9.35;;;3.95;;
81685;SDS011;71102;50.960;6.888;2023-07-20T08:00:26;9.65;;;3.50;;
81685;SDS011;71102;50.960;6.888;2023-07-20T08:02:51;8.98;;;4.22;;
81685;SDS011;71102;50.960;6.888;2023-07-20T08:05:17;8.10;;;3.47;;
81685;SDS011;71102;50.960;6.888;2023-07-20T08:07:42;11.07;;;3.65;;
81685;SDS011;71102;50.960;6.888;2023-07-20T08:10:07;7.53;;;3.40;;
81685;SDS011;71102;50.960;6.888;2023-07-20T08:12:33;8.35;;;3.15;;
81685;SDS011;71102;50.960;6.888;2023-07-20T08:14:59;10.93;;;3.30;;
81685;SDS011;71102;50.960;6.888;2023-07-20T08:17:24;11.13;;;3.90;;
81685;SDS011;71102;50.960;6.888;2023-07-20T08:19:50;8.30;;;3.58;;
81685;SDS011;71102;50.960;6.888;2023-07-20T08:22:15;7.55;;;2.75;;
81685;SDS011;71102;50.960;6.888;2023-07-20T08:24:41;8.00;;;3.50;;
81685;SDS011;71102;50.960;6.888;2023-07-20T08:27:07;11.10;;;3.35;;
81685;SDS011;71102;50.960;6.888;2023-07-20T08:29:33;7.78;;;3.75;;
81685;SDS011;71102;50.960;6.888;2023-07-20T08:31:59;5.32;;;1.98;;
81685;SDS011;71102;50.960;6.888;2023-07-20T08:34:24;6.38;;;2.20;;
81685;SDS011;71102;50.960;6.888;2023-07-20T08:36:49;8.35;;;2.50;;
81685;SDS011;71102;50.960;6.888;2023-07-20T08:39:15;6.53;;;2.50;;
81685;SDS011;71102;50.960;6.888;2023-07-20T08:41:41;7.10;;;2.72;;
81685;SDS011;71102;50.960;6.888;2023-07-20T08:44:07;5.05;;;2.00;;
81685;SDS011;71102;50.960;6.888;2023-07-20T08:46:33;7.47;;;2.20;;
81685;SDS011;71102;50.960;6.888;2023-07-20T08:49:00;6.88;;;2.42;;
81685;SDS011;71102;50.960;6.888;2023-07-20T08:51:25;6.40;;;2.13;;
81685;SDS011;71102;50.960;6.888;2023-07-20T08:53:51;8.27;;;2.75;;
81685;SDS011;71102;50.960;6.888;2023-07-20T08:56:17;5.85;;;1.90;;
81685;SDS011;71102;50.960;6.888;2023-07-20T08:58:44;6.65;;;1.73;;
81685;SDS011;71102;50.960;6.888;2023-07-20T09:01:10;5.57;;;2.03;;
81685;SDS011;71102;50.960;6.888;2023-07-20T09:03:36;7.75;;;2.75;;
81685;SDS011;71102;50.960;6.888;2023-07-20T09:06:01;5.72;;;2.72;;
81685;SDS011;71102;50.960;6.888;2023-07-20T09:08:27;5.72;;;2.13;;
81685;SDS011;71102;50.960;6.888;2023-07-20T09:10:52;6.13;;;2.05;;
81685;SDS011;71102;50.960;6.888;2023-07-20T09:13:17;5.77;;;1.90;;
81685;SDS011;71102;50.960;6.888;2023-07-20T09:15:46;6.93;;;2.17;;
81685;SDS011;71102;50.960;6.888;2023-07-20T09:18:12;5.63;;;2.10;;
81685;SDS011;71102;50.960;6.888;2023-07-20T09:20:48;6.20;;;2.40;;
81685;SDS011;71102;50.960;6.888;2023-07-20T09:23:14;6.50;;;2.10;;
81685;SDS011;71102;50.960;6.888;2023-07-20T09:25:39;8.73;;;1.87;;
81685;SDS011;71102;50.960;6.888;2023-07-20T09:28:05;5.53;;;1.63;;
81685;SDS011;71102;50.960;6.888;2023-07-20T09:30:30;5.55;;;1.60;;
81685;SDS011;71102;50.960;6.888;2023-07-20T09:32:56;5.05;;;1.60;;
81685;SDS011;71102;50.960;6.888;2023-07-20T09:35:22;6.15;;;1.88;;
81685;SDS011;71102;50.960;6.888;2023-07-20T09:37:52;6.13;;;1.80;;
81685;SDS011;71102;50.960;6.888;2023-07-20T09:40:23;4.80;;;1.80;;
81685;SDS011;71102;50.960;6.888;2023-07-20T09:42:50;4.03;;;1.33;;
81685;SDS011;71102;50.960;6.888;2023-07-20T09:45:17;5.15;;;1.60;;
81685;SDS011;71102;50.960;6.888;2023-07-20T09:47:42;5.82;;;2.40;;
81685;SDS011;71102;50.960;6.888;2023-07-20T09:50:08;5.57;;;1.40;;
81685;SDS011;71102;50.960;6.888;2023-07-20T09:52:33;5.00;;;1.83;;
81685;SDS011;71102;50.960;6.888;2023-07-20T09:55:00;5.60;;;2.03;;
81685;SDS011;71102;50.960;6.888;2023-07-20T09:57:27;5.65;;;1.80;;
81685;SDS011;71102;50.960;6.888;2023-07-20T09:59:54;5.20;;;1.65;;
81685;SDS011;71102;50.960;6.888;2023-07-20T10:02:26;7.30;;;1.50;;
81685;SDS011;71102;50.960;6.888;2023-07-20T10:04:58;5.05;;;1.52;;
81685;SDS011;71102;50.960;6.888;2023-07-20T10:07:28;3.33;;;1.35;;
81685;SDS011;71102;50.960;6.888;2023-07-20T10:09:55;6.07;;;2.67;;
81685;SDS011;71102;50.960;6.888;2023-07-20T10:12:24;4.90;;;1.10;;
81685;SDS011;71102;50.960;6.888;2023-07-20T10:15:11;4.60;;;1.20;;
81685;SDS011;71102;50.960;6.888;2023-07-20T10:18:09;5.60;;;1.58;;
81685;SDS011;71102;50.960;6.888;2023-07-20T10:20:39;5.43;;;1.45;;
81685;SDS011;71102;50.960;6.888;2023-07-20T10:23:05;4.15;;;1.42;;
81685;SDS011;71102;50.960;6.888;2023-07-20T10:25:32;3.90;;;1.35;;
81685;SDS011;71102;50.960;6.888;2023-07-20T10:27:58;5.95;;;2.40;;
81685;SDS011;71102;50.960;6.888;2023-07-20T10:30:23;3.95;;;1.65;;
81685;SDS011;71102;50.960;6.888;2023-07-20T10:32:50;3.78;;;1.60;;
81685;SDS011;71102;50.960;6.888;2023-07-20T10:35:17;3.65;;;1.23;;
81685;SDS011;71102;50.960;6.888;2023-07-20T10:40:28;5.28;;;1.42;;
81685;SDS011;71102;50.960;6.888;2023-07-20T10:42:58;5.05;;;1.40;;
81685;SDS011;71102;50.960;6.888;2023-07-20T10:45:34;4.25;;;1.50;;
81685;SDS011;71102;50.960;6.888;2023-07-20T10:48:21;5.60;;;1.15;;
81685;SDS011;71102;50.960;6.888;2023-07-20T10:53:39;3.90;;;1.17;;
81685;SDS011;71102;50.960;6.888;2023-07-20T10:56:05;6.00;;;1.50;;
81685;SDS011;71102;50.960;6.888;2023-07-20T10:58:36;5.22;;;1.95;;
81685;SDS011;71102;50.960;6.888;2023-07-20T11:01:02;5.43;;;1.20;;
81685;SDS011;71102;50.960;6.888;2023-07-20T11:03:33;4.13;;;1.65;;
81685;SDS011;71102;50.960;6.888;2023-07-20T11:05:59;3.28;;;1.10;;
81685;SDS011;71102;50.960;6.888;2023-07-20T11:11:29;3.70;;;1.63;;
81685;SDS011;71102;50.960;6.888;2023-07-20T11:16:33;4.47;;;1.48;;
81685;SDS011;71102;50.960;6.888;2023-07-20T11:19:24;3.47;;;1.63;;
81685;SDS011;71102;50.960;6.888;2023-07-20T11:21:52;4.05;;;1.17;;
81685;SDS011;71102;50.960;6.888;2023-07-20T11:24:21;3.28;;;1.73;;
81685;SDS011;71102;50.960;6.888;2023-07-20T11:26:50;3.78;;;1.00;;
81685;SDS011;71102;50.960;6.888;2023-07-20T11:29:18;3.50;;;1.38;;
81685;SDS011;71102;50.960;6.888;2023-07-20T11:31:45;3.72;;;1.23;;
81685;SDS011;71102;50.960;6.888;2023-07-20T11:34:11;3.45;;;1.40;;
81685;SDS011;71102;50.960;6.888;2023-07-20T11:36:39;4.50;;;1.40;;
81685;SDS011;71102;50.960;6.888;2023-07-20T11:39:06;4.05;;;1.58;;
81685;SDS011;71102;50.960;6.888;2023-07-20T11:41:33;5.63;;;1.35;;
81685;SDS011;71102;50.960;6.888;2023-07-20T11:43:58;4.57;;;1.23;;
81685;SDS011;71102;50.960;6.888;2023-07-20T11:46:24;4.22;;;1.48;;
81685;SDS011;71102;50.960;6.888;2023-07-20T11:48:49;3.80;;;1.30;;
81685;SDS011;71102;50.960;6.888;2023-07-20T11:51:21;5.00;;;1.80;;
81685;SDS011;71102;50.960;6.888;2023-07-20T11:53:47;3.38;;;1.10;;
81685;SDS011;71102;50.960;6.888;2023-07-20T11:56:13;3.50;;;0.90;;
81685;SDS011;71102;50.960;6.888;2023-07-20T11:58:42;2.88;;;1.27;;
81685;SDS011;71102;50.960;6.888;2023-07-20T12:01:11;3.08;;;0.82;;
81685;SDS011;71102;50.960;6.888;2023-07-20T12:03:41;4.95;;;1.00;;
81685;SDS011;71102;50.960;6.888;2023-07-20T12:06:07;5.75;;;1.10;;
81685;SDS011;71102;50.960;6.888;2023-07-20T12:08:33;6.07;;;1.20;;
81685;SDS011;71102;50.960;6.888;2023-07-20T12:10:59;3.35;;;1.00;;
81685;SDS011;71102;50.960;6.888;2023-07-20T12:13:35;2.80;;;1.10;;
81685;SDS011;71102;50.960;6.888;2023-07-20T12:16:06;4.40;;;1.33;;
81685;SDS011;71102;50.960;6.888;2023-07-20T12:18:36;7.60;;;1.42;;
81685;SDS011;71102;50.960;6.888;2023-07-20T12:21:02;4.47;;;1.23;;
81685;SDS011;71102;50.960;6.888;2023-07-20T12:23:34;4.35;;;1.45;;
81685;SDS011;71102;50.960;6.888;2023-07-20T12:26:07;6.88;;;1.17;;
81685;SDS011;71102;50.960;6.888;2023-07-20T12:28:33;4.07;;;1.10;;
81685;SDS011;71102;50.960;6.888;2023-07-20T12:31:03;3.97;;;1.10;;
81685;SDS011;71102;50.960;6.888;2023-07-20T12:33:30;3.42;;;1.42;;
81685;SDS011;71102;50.960;6.888;2023-07-20T12:35:55;4.15;;;1.08;;
81685;SDS011;71102;50.960;6.888;2023-07-20T12:38:20;4.45;;;1.42;;
81685;SDS011;71102;50.960;6.888;2023-07-20T12:40:47;2.55;;;1.15;;
81685;SDS011;71102;50.960;6.888;2023-07-20T12:43:12;5.43;;;1.63;;
81685;SDS011;71102;50.960;6.888;2023-07-20T12:45:38;3.58;;;0.90;;
81685;SDS011;71102;50.960;6.888;2023-07-20T12:48:03;3.42;;;0.90;;
81685;SDS011;71102;50.960;6.888;2023-07-20T12:50:29;7.30;;;1.50;;
81685;SDS011;71102;50.960;6.888;2023-07-20T12:52:54;3.95;;;1.60;;
81685;SDS011;71102;50.960;6.888;2023-07-20T12:55:19;3.75;;;1.00;;
81685;SDS011;71102;50.960;6.888;2023-07-20T12:57:45;3.05;;;1.23;;
81685;SDS011;71102;50.960;6.888;2023-07-20T13:00:11;3.45;;;0.98;;
81685;SDS011;71102;50.960;6.888;2023-07-20T13:02:37;3.38;;;1.35;;
81685;SDS011;71102;50.960;6.888;2023-07-20T13:05:03;4.35;;;1.45;;
81685;SDS011;71102;50.960;6.888;2023-07-20T13:07:35;4.95;;;1.90;;
81685;SDS011;71102;50.960;6.888;2023-07-20T13:10:01;7.65;;;1.20;;
81685;SDS011;71102;50.960;6.888;2023-07-20T13:12:28;3.80;;;0.98;;
81685;SDS011;71102;50.960;6.888;2023-07-20T13:14:54;7.10;;;1.80;;
81685;SDS011;71102;50.960;6.888;2023-07-20T13:17:20;9.32;;;1.42;;
81685;SDS011;71102;50.960;6.888;2023-07-20T13:19:45;6.67;;;1.33;;
81685;SDS011;71102;50.960;6.888;2023-07-20T13:22:11;4.63;;;1.17;;
81685;SDS011;71102;50.960;6.888;2023-07-20T13:24:36;4.97;;;0.97;;
81685;SDS011;71102;50.960;6.888;2023-07-20T13:27:01;7.50;;;1.10;;
81685;SDS011;71102;50.960;6.888;2023-07-20T13:29:27;7.65;;;1.10;;
81685;SDS011;71102;50.960;6.888;2023-07-20T13:31:52;7.00;;;1.30;;
81685;SDS011;71102;50.960;6.888;2023-07-20T13:34:18;10.05;;;1.60;;
81685;SDS011;71102;50.960;6.888;2023-07-20T13:36:43;15.23;;;1.70;;
81685;SDS011;71102;50.960;6.888;2023-07-20T13:39:08;11.53;;;1.33;;
81685;SDS011;71102;50.960;6.888;2023-07-20T13:41:33;11.77;;;1.42;;
81685;SDS011;71102;50.960;6.888;2023-07-20T13:43:59;11.35;;;1.45;;
81685;SDS011;71102;50.960;6.888;2023-07-20T13:46:24;3.72;;;1.10;;
81685;SDS011;71102;50.960;6.888;2023-07-20T13:48:50;5.82;;;1.00;;
81685;SDS011;71102;50.960;6.888;2023-07-20T13:51:15;6.20;;;1.67;;
81685;SDS011;71102;50.960;6.888;2023-07-20T13:53:40;4.07;;;1.33;;
81685;SDS011;71102;50.960;6.888;2023-07-20T13:56:06;3.58;;;1.33;;
81685;SDS011;71102;50.960;6.888;2023-07-20T13:58:32;6.85;;;1.80;;
81685;SDS011;71102;50.960;6.888;2023-07-20T14:00:57;3.78;;;1.30;;
81685;SDS011;71102;50.960;6.888;2023-07-20T14:03:23;4.60;;;1.00;;
81685;SDS011;71102;50.960;6.888;2023-07-20T14:05:49;6.05;;;1.00;;
81685;SDS011;71102;50.960;6.888;2023-07-20T14:08:15;3.55;;;1.30;;
81685;SDS011;71102;50.960;6.888;2023-07-20T14:10:41;4.57;;;1.17;;
81685;SDS011;71102;50.960;6.888;2023-07-20T14:13:06;6.82;;;1.35;;
81685;SDS011;71102;50.960;6.888;2023-07-20T14:15:31;4.75;;;1.33;;
81685;SDS011;71102;50.960;6.888;2023-07-20T14:17:58;2.83;;;1.08;;
81685;SDS011;71102;50.960;6.888;2023-07-20T14:20:24;6.53;;;1.37;;
81685;SDS011;71102;50.960;6.888;2023-07-20T14:22:49;4.80;;;1.17;;
81685;SDS011;71102;50.960;6.888;2023-07-20T14:25:14;4.43;;;1.05;;
81685;SDS011;71102;50.960;6.888;2023-07-20T14:27:40;3.25;;;1.23;;
81685;SDS011;71102;50.960;6.888;2023-07-20T14:30:05;3.55;;;1.45;;
81685;SDS011;71102;50.960;6.888;2023-07-20T14:32:31;3.85;;;1.42;;
81685;SDS011;71102;50.960;6.888;2023-07-20T14:34:57;4.80;;;1.23;;
81685;SDS011;71102;50.960;6.888;2023-07-20T14:37:22;4.87;;;0.90;;
81685;SDS011;71102;50.960;6.888;2023-07-20T14:39:47;5.07;;;1.00;;
81685;SDS011;71102;50.960;6.888;2023-07-20T14:42:13;6.88;;;1.33;;
81685;SDS011;71102;50.960;6.888;2023-07-20T14:44:38;5.13;;;1.92;;
81685;SDS011;71102;50.960;6.888;2023-07-20T14:47:03;3.30;;;1.00;;
81685;SDS011;71102;50.960;6.888;2023-07-20T14:49:29;5.68;;;1.00;;
81685;SDS011;71102;50.960;6.888;2023-07-20T14:51:54;4.10;;;0.90;;
81685;SDS011;71102;50.960;6.888;2023-07-20T14:54:19;7.18;;;1.38;;
81685;SDS011;71102;50.960;6.888;2023-07-20T14:56:48;6.72;;;1.40;;
81685;SDS011;71102;50.960;6.888;2023-07-20T14:59:15;3.47;;;1.02;;
81685;SDS011;71102;50.960;6.888;2023-07-20T15:01:40;4.38;;;1.10;;
81685;SDS011;71102;50.960;6.888;2023-07-20T15:04:05;6.13;;;1.67;;
81685;SDS011;71102;50.960;6.888;2023-07-20T15:06:31;3.58;;;0.95;;